sensor_id;sensor_type;location;lat;lon;timestamp;P1;durP1;ratioP1;P2;durP2;ratioP2
30127;SDS011;16942;53.196;6.592;2023-02-13T00:01:22;23.67;;;11.83;;
30127;SDS011;16942;53.196;6.592;2023-02-13T00:03:48;22.87;;;12.30;;
30127;SDS011;16942;53.196;6.592;2023-02-13T00:06:14;22.33;;;11.63;;
30127;SDS011;16942;53.196;6.592;2023-02-13T00:08:40;23.50;;;12.27;;
30127;SDS011;16942;53.196;6.592;2023-02-13T00:11:06;21.33;;;11.40;;
30127;SDS011;16942;53.196;6.592;2023-02-13T00:13:33;22.20;;;12.27;;
30127;SDS011;16942;53.196;6.592;2023-02-13T00:16:00;24.37;;;12.50;;
30127;SDS011;16942;53.196;6.592;2023-02-13T00:18:26;20.67;;;11.83;;
30127;SDS011;16942;53.196;6.592;2023-02-13T00:20:59;21.47;;;11.60;;
30127;SDS011;16942;53.196;6.592;2023-02-13T00:23:26;20.70;;;11.70;;
30127;SDS011;16942;53.196;6.592;2023-02-13T00:25:52;20.50;;;11.13;;
30127;SDS011;16942;53.196;6.592;2023-02-13T00:28:18;21.20;;;11.50;;
30127;SDS011;16942;53.196;6.592;2023-02-13T00:30:44;24.07;;;11.33;;
30127;SDS011;16942;53.196;6.592;2023-02-13T00:33:10;23.03;;;12.67;;
30127;SDS011;16942;53.196;6.592;2023-02-13T00:35:36;21.23;;;12.03;;
30127;SDS011;16942;53.196;6.592;2023-02-13T00:38:02;22.80;;;12.37;;
30127;SDS011;16942;53.196;6.592;2023-02-13T00:40:28;20.93;;;12.40;;
30127;SDS011;16942;53.196;6.592;2023-02-13T00:42:54;22.20;;;11.87;;
30127;SDS011;16942;53.196;6.592;2023-02-13T00:45:20;21.93;;;11.40;;
30127;SDS011;16942;53.196;6.592;2023-02-13T00:47:46;23.03;;;12.37;;
30127;SDS011;16942;53.196;6.592;2023-02-13T00:50:12;23.70;;;12.63;;
30127;SDS011;16942;53.196;6.592;2023-02-13T00:52:38;25.83;;;13.13;;
30127;SDS011;16942;53.196;6.592;2023-02-13T00:55:04;21.10;;;12.33;;
30127;SDS011;16942;53.196;6.592;2023-02-13T00:57:31;20.87;;;12.23;;
30127;SDS011;16942;53.196;6.592;2023-02-13T00:59:57;21.47;;;12.50;;
30127;SDS011;16942;53.196;6.592;2023-02-13T01:02:23;24.20;;;12.30;;
30127;SDS011;16942;53.196;6.592;2023-02-13T01:04:50;26.03;;;13.03;;
30127;SDS011;16942;53.196;6.592;2023-02-13T01:07:16;24.17;;;12.70;;
30127;SDS011;16942;53.196;6.592;2023-02-13T01:09:42;22.20;;;11.97;;
30127;SDS011;16942;53.196;6.592;2023-02-13T01:12:08;21.77;;;12.10;;
30127;SDS011;16942;53.196;6.592;2023-02-13T01:14:34;23.03;;;12.83;;
30127;SDS011;16942;53.196;6.592;2023-02-13T01:17:00;19.70;;;11.53;;
30127;SDS011;16942;53.196;6.592;2023-02-13T01:19:26;22.33;;;11.57;;
30127;SDS011;16942;53.196;6.592;2023-02-13T01:21:52;23.13;;;12.23;;
30127;SDS011;16942;53.196;6.592;2023-02-13T01:24:18;23.57;;;11.67;;
30127;SDS011;16942;53.196;6.592;2023-02-13T01:26:44;20.17;;;12.10;;
30127;SDS011;16942;53.196;6.592;2023-02-13T01:29:11;20.87;;;12.17;;
30127;SDS011;16942;53.196;6.592;2023-02-13T01:31:38;22.07;;;12.47;;
30127;SDS011;16942;53.196;6.592;2023-02-13T01:34:04;21.53;;;12.03;;
30127;SDS011;16942;53.196;6.592;2023-02-13T01:36:30;22.17;;;11.87;;
30127;SDS011;16942;53.196;6.592;2023-02-13T01:38:56;22.70;;;12.17;;
30127;SDS011;16942;53.196;6.592;2023-02-13T01:41:23;23.43;;;12.27;;
30127;SDS011;16942;53.196;6.592;2023-02-13T01:43:57;21.37;;;12.03;;
30127;SDS011;16942;53.196;6.592;2023-02-13T01:46:56;25.57;;;12.27;;
30127;SDS011;16942;53.196;6.592;2023-02-13T01:49:17;25.07;;;12.50;;
30127;SDS011;16942;53.196;6.592;2023-02-13T01:51:44;26.90;;;12.97;;
30127;SDS011;16942;53.196;6.592;2023-02-13T01:54:12;23.33;;;11.90;;
30127;SDS011;16942;53.196;6.592;2023-02-13T01:56:40;26.57;;;12.33;;
30127;SDS011;16942;53.196;6.592;2023-02-13T01:59:08;26.13;;;12.87;;
30127;SDS011;16942;53.196;6.592;2023-02-13T02:01:35;25.77;;;12.50;;
30127;SDS011;16942;53.196;6.592;2023-02-13T02:04:06;25.23;;;12.77;;
30127;SDS011;16942;53.196;6.592;2023-02-13T02:06:34;24.13;;;12.33;;
30127;SDS011;16942;53.196;6.592;2023-02-13T02:09:02;26.23;;;12.87;;
30127;SDS011;16942;53.196;6.592;2023-02-13T02:14:11;27.60;;;12.20;;
30127;SDS011;16942;53.196;6.592;2023-02-13T02:16:37;25.17;;;12.33;;
30127;SDS011;16942;53.196;6.592;2023-02-13T02:19:04;24.70;;;12.13;;
30127;SDS011;16942;53.196;6.592;2023-02-13T02:21:41;22.77;;;12.77;;
30127;SDS011;16942;53.196;6.592;2023-02-13T02:32:09;23.70;;;12.87;;
30127;SDS011;16942;53.196;6.592;2023-02-13T02:42:51;30.60;;;13.47;;
30127;SDS011;16942;53.196;6.592;2023-02-13T02:47:53;27.97;;;12.93;;
30127;SDS011;16942;53.196;6.592;2023-02-13T02:50:50;26.07;;;13.03;;
30127;SDS011;16942;53.196;6.592;2023-02-13T02:56:07;25.50;;;13.17;;
30127;SDS011;16942;53.196;6.592;2023-02-13T02:58:37;28.63;;;13.47;;
30127;SDS011;16942;53.196;6.592;2023-02-13T03:01:23;30.23;;;13.60;;
30127;SDS011;16942;53.196;6.592;2023-02-13T03:04:42;26.80;;;14.03;;
30127;SDS011;16942;53.196;6.592;2023-02-13T03:07:19;29.43;;;13.93;;
30127;SDS011;16942;53.196;6.592;2023-02-13T03:09:50;29.03;;;13.50;;
30127;SDS011;16942;53.196;6.592;2023-02-13T03:12:39;30.90;;;12.83;;
30127;SDS011;16942;53.196;6.592;2023-02-13T03:15:25;29.90;;;13.00;;
30127;SDS011;16942;53.196;6.592;2023-02-13T03:17:51;29.33;;;14.73;;
30127;SDS011;16942;53.196;6.592;2023-02-13T03:23:35;31.97;;;14.93;;
30127;SDS011;16942;53.196;6.592;2023-02-13T03:26:29;27.73;;;14.27;;
30127;SDS011;16942;53.196;6.592;2023-02-13T03:32:00;27.37;;;14.37;;
30127;SDS011;16942;53.196;6.592;2023-02-13T03:34:35;30.40;;;15.07;;
30127;SDS011;16942;53.196;6.592;2023-02-13T03:37:31;31.73;;;15.23;;
30127;SDS011;16942;53.196;6.592;2023-02-13T03:45:27;29.80;;;15.30;;
30127;SDS011;16942;53.196;6.592;2023-02-13T03:48:13;28.27;;;14.77;;
30127;SDS011;16942;53.196;6.592;2023-02-13T03:51:10;29.90;;;15.23;;
30127;SDS011;16942;53.196;6.592;2023-02-13T03:53:37;29.73;;;13.97;;
30127;SDS011;16942;53.196;6.592;2023-02-13T03:56:03;26.90;;;14.13;;
30127;SDS011;16942;53.196;6.592;2023-02-13T03:58:51;27.20;;;14.77;;
30127;SDS011;16942;53.196;6.592;2023-02-13T04:01:37;26.03;;;13.67;;
30127;SDS011;16942;53.196;6.592;2023-02-13T04:04:08;28.30;;;13.87;;
30127;SDS011;16942;53.196;6.592;2023-02-13T04:06:37;29.67;;;14.57;;
30127;SDS011;16942;53.196;6.592;2023-02-13T04:09:05;27.70;;;13.73;;
30127;SDS011;16942;53.196;6.592;2023-02-13T04:14:02;28.60;;;14.57;;
30127;SDS011;16942;53.196;6.592;2023-02-13T04:16:36;26.10;;;13.73;;
30127;SDS011;16942;53.196;6.592;2023-02-13T04:19:04;31.80;;;13.97;;
30127;SDS011;16942;53.196;6.592;2023-02-13T04:21:32;29.73;;;14.60;;
30127;SDS011;16942;53.196;6.592;2023-02-13T04:23:58;28.50;;;14.93;;
30127;SDS011;16942;53.196;6.592;2023-02-13T04:26:24;30.53;;;14.57;;
30127;SDS011;16942;53.196;6.592;2023-02-13T04:28:51;29.10;;;14.57;;
30127;SDS011;16942;53.196;6.592;2023-02-13T04:31:18;28.43;;;14.67;;
30127;SDS011;16942;53.196;6.592;2023-02-13T04:33:44;25.97;;;14.43;;
30127;SDS011;16942;53.196;6.592;2023-02-13T04:36:10;26.43;;;13.90;;
30127;SDS011;16942;53.196;6.592;2023-02-13T04:38:36;28.80;;;14.50;;
30127;SDS011;16942;53.196;6.592;2023-02-13T04:41:02;29.17;;;14.37;;
30127;SDS011;16942;53.196;6.592;2023-02-13T04:43:28;26.40;;;13.87;;
30127;SDS011;16942;53.196;6.592;2023-02-13T04:45:54;31.70;;;14.87;;
30127;SDS011;16942;53.196;6.592;2023-02-13T04:48:20;32.43;;;15.00;;
30127;SDS011;16942;53.196;6.592;2023-02-13T04:50:46;26.37;;;14.33;;
30127;SDS011;16942;53.196;6.592;2023-02-13T04:53:12;27.80;;;14.57;;
30127;SDS011;16942;53.196;6.592;2023-02-13T04:55:38;30.40;;;15.07;;
30127;SDS011;16942;53.196;6.592;2023-02-13T04:58:04;29.00;;;14.33;;
30127;SDS011;16942;53.196;6.592;2023-02-13T05:00:30;26.30;;;13.50;;
30127;SDS011;16942;53.196;6.592;2023-02-13T05:03:03;31.70;;;15.53;;
30127;SDS011;16942;53.196;6.592;2023-02-13T05:05:29;26.67;;;14.17;;
30127;SDS011;16942;53.196;6.592;2023-02-13T05:07:55;26.77;;;13.57;;
30127;SDS011;16942;53.196;6.592;2023-02-13T05:10:21;28.80;;;14.37;;
30127;SDS011;16942;53.196;6.592;2023-02-13T05:12:47;31.23;;;15.57;;
30127;SDS011;16942;53.196;6.592;2023-02-13T05:15:13;30.80;;;15.90;;
30127;SDS011;16942;53.196;6.592;2023-02-13T05:17:42;32.03;;;14.83;;
30127;SDS011;16942;53.196;6.592;2023-02-13T05:20:08;27.90;;;14.97;;
30127;SDS011;16942;53.196;6.592;2023-02-13T05:22:34;34.27;;;15.90;;
30127;SDS011;16942;53.196;6.592;2023-02-13T05:25:19;29.27;;;15.03;;
30127;SDS011;16942;53.196;6.592;2023-02-13T05:27:45;26.80;;;13.57;;
30127;SDS011;16942;53.196;6.592;2023-02-13T05:30:11;28.67;;;14.77;;
30127;SDS011;16942;53.196;6.592;2023-02-13T05:32:37;27.53;;;14.27;;
30127;SDS011;16942;53.196;6.592;2023-02-13T05:35:04;30.13;;;15.17;;
30127;SDS011;16942;53.196;6.592;2023-02-13T05:37:30;31.67;;;15.00;;
30127;SDS011;16942;53.196;6.592;2023-02-13T05:39:56;29.50;;;15.07;;
30127;SDS011;16942;53.196;6.592;2023-02-13T05:42:22;32.00;;;16.10;;
30127;SDS011;16942;53.196;6.592;2023-02-13T05:44:48;32.60;;;15.47;;
30127;SDS011;16942;53.196;6.592;2023-02-13T05:47:14;31.23;;;15.50;;
30127;SDS011;16942;53.196;6.592;2023-02-13T05:49:40;31.50;;;14.23;;
30127;SDS011;16942;53.196;6.592;2023-02-13T05:52:06;28.37;;;15.03;;
30127;SDS011;16942;53.196;6.592;2023-02-13T05:54:32;28.77;;;15.30;;
30127;SDS011;16942;53.196;6.592;2023-02-13T05:56:58;33.90;;;15.87;;
30127;SDS011;16942;53.196;6.592;2023-02-13T05:59:25;30.77;;;14.93;;
30127;SDS011;16942;53.196;6.592;2023-02-13T06:01:51;29.00;;;14.60;;
30127;SDS011;16942;53.196;6.592;2023-02-13T06:04:17;26.67;;;13.90;;
30127;SDS011;16942;53.196;6.592;2023-02-13T06:06:43;30.43;;;15.63;;
30127;SDS011;16942;53.196;6.592;2023-02-13T06:09:10;29.53;;;14.33;;
30127;SDS011;16942;53.196;6.592;2023-02-13T06:11:36;29.00;;;15.27;;
30127;SDS011;16942;53.196;6.592;2023-02-13T06:14:02;32.63;;;16.07;;
30127;SDS011;16942;53.196;6.592;2023-02-13T06:16:28;30.63;;;16.10;;
30127;SDS011;16942;53.196;6.592;2023-02-13T06:18:55;35.93;;;16.70;;
30127;SDS011;16942;53.196;6.592;2023-02-13T06:21:21;30.13;;;14.63;;
30127;SDS011;16942;53.196;6.592;2023-02-13T06:23:47;32.97;;;16.03;;
30127;SDS011;16942;53.196;6.592;2023-02-13T06:26:13;28.90;;;14.80;;
30127;SDS011;16942;53.196;6.592;2023-02-13T06:28:39;34.00;;;16.43;;
30127;SDS011;16942;53.196;6.592;2023-02-13T06:31:05;32.70;;;15.67;;
30127;SDS011;16942;53.196;6.592;2023-02-13T06:33:31;28.23;;;14.33;;
30127;SDS011;16942;53.196;6.592;2023-02-13T06:35:58;31.73;;;15.80;;
30127;SDS011;16942;53.196;6.592;2023-02-13T06:38:24;28.50;;;14.60;;
30127;SDS011;16942;53.196;6.592;2023-02-13T06:40:50;32.67;;;15.83;;
30127;SDS011;16942;53.196;6.592;2023-02-13T06:43:16;31.70;;;16.13;;
30127;SDS011;16942;53.196;6.592;2023-02-13T06:45:42;31.27;;;15.47;;
30127;SDS011;16942;53.196;6.592;2023-02-13T06:48:10;29.77;;;15.90;;
30127;SDS011;16942;53.196;6.592;2023-02-13T06:50:36;29.90;;;16.73;;
30127;SDS011;16942;53.196;6.592;2023-02-13T06:53:02;34.00;;;17.53;;
30127;SDS011;16942;53.196;6.592;2023-02-13T06:55:28;35.47;;;15.53;;
30127;SDS011;16942;53.196;6.592;2023-02-13T06:57:55;33.43;;;16.23;;
30127;SDS011;16942;53.196;6.592;2023-02-13T07:00:21;35.97;;;17.23;;
30127;SDS011;16942;53.196;6.592;2023-02-13T07:02:48;34.53;;;16.47;;
30127;SDS011;16942;53.196;6.592;2023-02-13T07:05:14;28.23;;;14.87;;
30127;SDS011;16942;53.196;6.592;2023-02-13T07:07:41;31.73;;;16.57;;
30127;SDS011;16942;53.196;6.592;2023-02-13T07:10:08;32.30;;;14.87;;
30127;SDS011;16942;53.196;6.592;2023-02-13T07:12:35;31.27;;;15.93;;
30127;SDS011;16942;53.196;6.592;2023-02-13T07:15:01;32.90;;;14.97;;
30127;SDS011;16942;53.196;6.592;2023-02-13T07:17:28;31.40;;;14.77;;
30127;SDS011;16942;53.196;6.592;2023-02-13T07:19:55;30.30;;;14.00;;
30127;SDS011;16942;53.196;6.592;2023-02-13T07:22:21;30.23;;;14.67;;
30127;SDS011;16942;53.196;6.592;2023-02-13T07:24:47;33.63;;;15.97;;
30127;SDS011;16942;53.196;6.592;2023-02-13T07:27:13;34.37;;;15.47;;
30127;SDS011;16942;53.196;6.592;2023-02-13T07:29:39;28.17;;;14.13;;
30127;SDS011;16942;53.196;6.592;2023-02-13T07:32:05;28.53;;;14.03;;
30127;SDS011;16942;53.196;6.592;2023-02-13T07:34:33;31.17;;;14.50;;
30127;SDS011;16942;53.196;6.592;2023-02-13T07:36:59;30.93;;;15.10;;
30127;SDS011;16942;53.196;6.592;2023-02-13T07:39:25;33.40;;;17.27;;
30127;SDS011;16942;53.196;6.592;2023-02-13T07:41:51;36.60;;;17.70;;
30127;SDS011;16942;53.196;6.592;2023-02-13T07:44:17;32.90;;;16.10;;
30127;SDS011;16942;53.196;6.592;2023-02-13T07:46:43;33.80;;;17.90;;
30127;SDS011;16942;53.196;6.592;2023-02-13T07:49:09;30.17;;;14.70;;
30127;SDS011;16942;53.196;6.592;2023-02-13T07:51:35;30.43;;;15.53;;
30127;SDS011;16942;53.196;6.592;2023-02-13T07:54:01;33.33;;;16.60;;
30127;SDS011;16942;53.196;6.592;2023-02-13T07:56:27;30.90;;;15.47;;
30127;SDS011;16942;53.196;6.592;2023-02-13T07:58:53;29.27;;;15.93;;
30127;SDS011;16942;53.196;6.592;2023-02-13T08:01:20;33.60;;;16.27;;
30127;SDS011;16942;53.196;6.592;2023-02-13T08:03:46;31.07;;;14.73;;
30127;SDS011;16942;53.196;6.592;2023-02-13T08:06:15;30.43;;;14.80;;
30127;SDS011;16942;53.196;6.592;2023-02-13T08:08:41;35.17;;;17.97;;
30127;SDS011;16942;53.196;6.592;2023-02-13T08:11:11;38.73;;;18.87;;
30127;SDS011;16942;53.196;6.592;2023-02-13T08:14:03;33.83;;;16.57;;
30127;SDS011;16942;53.196;6.592;2023-02-13T08:16:29;37.30;;;17.43;;
30127;SDS011;16942;53.196;6.592;2023-02-13T08:18:55;39.90;;;17.20;;
30127;SDS011;16942;53.196;6.592;2023-02-13T08:21:21;29.40;;;14.70;;
30127;SDS011;16942;53.196;6.592;2023-02-13T08:23:47;29.17;;;14.97;;
30127;SDS011;16942;53.196;6.592;2023-02-13T08:26:15;23.50;;;13.00;;
30127;SDS011;16942;53.196;6.592;2023-02-13T08:28:42;31.83;;;15.13;;
30127;SDS011;16942;53.196;6.592;2023-02-13T08:31:08;28.40;;;14.50;;
30127;SDS011;16942;53.196;6.592;2023-02-13T08:33:35;29.70;;;14.10;;
30127;SDS011;16942;53.196;6.592;2023-02-13T08:36:02;33.23;;;14.90;;
30127;SDS011;16942;53.196;6.592;2023-02-13T08:38:28;28.77;;;13.57;;
30127;SDS011;16942;53.196;6.592;2023-02-13T08:40:57;30.90;;;13.77;;
30127;SDS011;16942;53.196;6.592;2023-02-13T08:43:23;31.80;;;15.03;;
30127;SDS011;16942;53.196;6.592;2023-02-13T08:45:49;31.30;;;15.13;;
30127;SDS011;16942;53.196;6.592;2023-02-13T08:48:15;28.90;;;13.97;;
30127;SDS011;16942;53.196;6.592;2023-02-13T08:50:41;26.77;;;13.97;;
30127;SDS011;16942;53.196;6.592;2023-02-13T08:53:07;34.63;;;15.00;;
30127;SDS011;16942;53.196;6.592;2023-02-13T08:55:34;28.33;;;14.13;;
30127;SDS011;16942;53.196;6.592;2023-02-13T08:58:00;28.43;;;14.43;;
30127;SDS011;16942;53.196;6.592;2023-02-13T09:00:26;29.93;;;14.60;;
30127;SDS011;16942;53.196;6.592;2023-02-13T09:02:52;27.30;;;14.30;;
30127;SDS011;16942;53.196;6.592;2023-02-13T09:05:19;27.97;;;14.43;;
30127;SDS011;16942;53.196;6.592;2023-02-13T09:07:45;29.00;;;14.50;;
30127;SDS011;16942;53.196;6.592;2023-02-13T09:10:11;33.57;;;14.93;;
30127;SDS011;16942;53.196;6.592;2023-02-13T09:12:37;29.60;;;14.97;;
30127;SDS011;16942;53.196;6.592;2023-02-13T09:15:03;26.33;;;13.20;;
30127;SDS011;16942;53.196;6.592;2023-02-13T09:17:30;31.20;;;15.50;;
30127;SDS011;16942;53.196;6.592;2023-02-13T09:19:56;29.93;;;14.20;;
30127;SDS011;16942;53.196;6.592;2023-02-13T09:22:22;28.33;;;13.93;;
30127;SDS011;16942;53.196;6.592;2023-02-13T09:24:48;30.03;;;13.80;;
30127;SDS011;16942;53.196;6.592;2023-02-13T09:27:14;28.47;;;14.67;;
30127;SDS011;16942;53.196;6.592;2023-02-13T09:29:40;26.67;;;13.67;;
30127;SDS011;16942;53.196;6.592;2023-02-13T09:32:06;31.57;;;15.53;;
30127;SDS011;16942;53.196;6.592;2023-02-13T09:34:32;29.53;;;15.67;;
30127;SDS011;16942;53.196;6.592;2023-02-13T09:36:58;28.03;;;15.20;;
30127;SDS011;16942;53.196;6.592;2023-02-13T09:39:24;30.07;;;14.80;;
30127;SDS011;16942;53.196;6.592;2023-02-13T09:41:51;28.90;;;14.63;;
30127;SDS011;16942;53.196;6.592;2023-02-13T09:49:37;29.43;;;15.97;;
30127;SDS011;16942;53.196;6.592;2023-02-13T09:52:06;28.40;;;14.80;;
30127;SDS011;16942;53.196;6.592;2023-02-13T09:54:33;27.87;;;14.50;;
30127;SDS011;16942;53.196;6.592;2023-02-13T09:57:01;27.00;;;13.83;;
30127;SDS011;16942;53.196;6.592;2023-02-13T10:02:00;30.50;;;16.00;;
30127;SDS011;16942;53.196;6.592;2023-02-13T10:17:35;30.03;;;14.10;;
30127;SDS011;16942;53.196;6.592;2023-02-13T10:22:52;32.03;;;15.07;;
30127;SDS011;16942;53.196;6.592;2023-02-13T10:25:20;25.80;;;13.53;;
30127;SDS011;16942;53.196;6.592;2023-02-13T10:27:54;24.53;;;13.27;;
30127;SDS011;16942;53.196;6.592;2023-02-13T10:30:24;25.80;;;13.63;;
30127;SDS011;16942;53.196;6.592;2023-02-13T10:35:44;26.97;;;13.40;;
30127;SDS011;16942;53.196;6.592;2023-02-13T10:38:15;29.23;;;13.97;;
30127;SDS011;16942;53.196;6.592;2023-02-13T10:40:48;27.10;;;13.10;;
30127;SDS011;16942;53.196;6.592;2023-02-13T10:43:19;27.60;;;13.53;;
30127;SDS011;16942;53.196;6.592;2023-02-13T10:50:46;26.13;;;13.27;;
30127;SDS011;16942;53.196;6.592;2023-02-13T10:53:27;30.27;;;15.50;;
30127;SDS011;16942;53.196;6.592;2023-02-13T11:03:49;28.63;;;14.87;;
30127;SDS011;16942;53.196;6.592;2023-02-13T11:06:25;26.63;;;13.77;;
30127;SDS011;16942;53.196;6.592;2023-02-13T11:08:52;34.63;;;15.50;;
30127;SDS011;16942;53.196;6.592;2023-02-13T11:21:48;32.17;;;15.47;;
30127;SDS011;16942;53.196;6.592;2023-02-13T11:24:20;31.40;;;15.17;;
30127;SDS011;16942;53.196;6.592;2023-02-13T11:26:49;29.33;;;14.77;;
30127;SDS011;16942;53.196;6.592;2023-02-13T11:29:17;32.37;;;15.40;;
30127;SDS011;16942;53.196;6.592;2023-02-13T11:31:45;30.37;;;14.57;;
30127;SDS011;16942;53.196;6.592;2023-02-13T11:36:50;33.87;;;15.87;;
30127;SDS011;16942;53.196;6.592;2023-02-13T11:39:17;30.13;;;14.27;;
30127;SDS011;16942;53.196;6.592;2023-02-13T11:41:44;29.43;;;13.83;;
30127;SDS011;16942;53.196;6.592;2023-02-13T11:46:50;29.43;;;14.37;;
30127;SDS011;16942;53.196;6.592;2023-02-13T11:51:43;31.70;;;14.33;;
30127;SDS011;16942;53.196;6.592;2023-02-13T11:57:01;25.93;;;13.73;;
30127;SDS011;16942;53.196;6.592;2023-02-13T11:59:32;33.60;;;14.43;;
30127;SDS011;16942;53.196;6.592;2023-02-13T12:02:13;29.40;;;14.00;;
30127;SDS011;16942;53.196;6.592;2023-02-13T12:04:40;35.03;;;15.60;;
30127;SDS011;16942;53.196;6.592;2023-02-13T12:09:35;28.67;;;13.57;;
30127;SDS011;16942;53.196;6.592;2023-02-13T12:12:02;25.43;;;12.43;;
30127;SDS011;16942;53.196;6.592;2023-02-13T12:14:30;26.63;;;13.17;;
30127;SDS011;16942;53.196;6.592;2023-02-13T12:17:07;27.43;;;14.50;;
30127;SDS011;16942;53.196;6.592;2023-02-13T12:19:40;23.70;;;12.63;;
30127;SDS011;16942;53.196;6.592;2023-02-13T12:40:37;30.87;;;13.50;;
30127;SDS011;16942;53.196;6.592;2023-02-13T13:06:47;28.73;;;15.17;;
30127;SDS011;16942;53.196;6.592;2023-02-13T13:11:17;29.70;;;15.13;;
30127;SDS011;16942;53.196;6.592;2023-02-13T13:26:52;23.40;;;12.67;;
30127;SDS011;16942;53.196;6.592;2023-02-13T13:31:58;26.07;;;14.00;;
30127;SDS011;16942;53.196;6.592;2023-02-13T13:34:26;23.87;;;13.20;;
30127;SDS011;16942;53.196;6.592;2023-02-13T13:37:06;26.87;;;13.90;;
30127;SDS011;16942;53.196;6.592;2023-02-13T13:49:50;27.73;;;14.17;;
30127;SDS011;16942;53.196;6.592;2023-02-13T13:54:43;32.97;;;15.10;;
30127;SDS011;16942;53.196;6.592;2023-02-13T13:57:15;27.93;;;14.13;;
30127;SDS011;16942;53.196;6.592;2023-02-13T14:05:01;30.17;;;15.77;;
30127;SDS011;16942;53.196;6.592;2023-02-13T14:07:34;27.50;;;14.20;;
30127;SDS011;16942;53.196;6.592;2023-02-13T14:10:00;28.53;;;14.67;;
30127;SDS011;16942;53.196;6.592;2023-02-13T14:14:53;27.47;;;14.77;;
30127;SDS011;16942;53.196;6.592;2023-02-13T14:20:15;28.87;;;15.00;;
30127;SDS011;16942;53.196;6.592;2023-02-13T14:22:41;27.57;;;14.40;;
30127;SDS011;16942;53.196;6.592;2023-02-13T14:25:22;31.27;;;15.13;;
30127;SDS011;16942;53.196;6.592;2023-02-13T14:27:59;31.33;;;15.80;;
30127;SDS011;16942;53.196;6.592;2023-02-13T14:30:27;28.40;;;15.70;;
30127;SDS011;16942;53.196;6.592;2023-02-13T14:32:54;31.93;;;16.13;;
30127;SDS011;16942;53.196;6.592;2023-02-13T14:35:25;31.77;;;16.97;;
30127;SDS011;16942;53.196;6.592;2023-02-13T14:37:59;27.63;;;15.27;;
30127;SDS011;16942;53.196;6.592;2023-02-13T14:40:27;32.50;;;16.70;;
30127;SDS011;16942;53.196;6.592;2023-02-13T14:42:59;32.60;;;17.27;;
30127;SDS011;16942;53.196;6.592;2023-02-13T14:45:30;32.60;;;16.47;;
30127;SDS011;16942;53.196;6.592;2023-02-13T14:47:57;32.23;;;16.10;;
30127;SDS011;16942;53.196;6.592;2023-02-13T14:50:28;32.93;;;16.67;;
30127;SDS011;16942;53.196;6.592;2023-02-13T14:52:56;28.83;;;15.47;;
30127;SDS011;16942;53.196;6.592;2023-02-13T14:55:33;33.50;;;16.93;;
30127;SDS011;16942;53.196;6.592;2023-02-13T14:58:44;34.50;;;16.53;;
30127;SDS011;16942;53.196;6.592;2023-02-13T15:00:58;31.27;;;16.63;;
30127;SDS011;16942;53.196;6.592;2023-02-13T15:03:45;34.13;;;16.77;;
30127;SDS011;16942;53.196;6.592;2023-02-13T15:09:04;34.47;;;17.00;;
30127;SDS011;16942;53.196;6.592;2023-02-13T15:16:45;39.13;;;17.20;;
30127;SDS011;16942;53.196;6.592;2023-02-13T15:19:16;38.73;;;19.07;;
30127;SDS011;16942;53.196;6.592;2023-02-13T15:21:47;33.13;;;17.37;;
30127;SDS011;16942;53.196;6.592;2023-02-13T15:24:13;30.73;;;16.37;;
30127;SDS011;16942;53.196;6.592;2023-02-13T15:26:39;37.73;;;18.00;;
30127;SDS011;16942;53.196;6.592;2023-02-13T15:29:16;29.97;;;15.30;;
30127;SDS011;16942;53.196;6.592;2023-02-13T15:31:42;28.90;;;16.43;;
30127;SDS011;16942;53.196;6.592;2023-02-13T15:37:17;34.03;;;15.87;;
30127;SDS011;16942;53.196;6.592;2023-02-13T15:39:44;29.77;;;16.07;;
30127;SDS011;16942;53.196;6.592;2023-02-13T15:42:10;32.77;;;16.60;;
30127;SDS011;16942;53.196;6.592;2023-02-13T15:44:37;29.10;;;16.07;;
30127;SDS011;16942;53.196;6.592;2023-02-13T15:47:05;31.60;;;16.60;;
30127;SDS011;16942;53.196;6.592;2023-02-13T15:49:42;32.37;;;17.67;;
30127;SDS011;16942;53.196;6.592;2023-02-13T15:52:13;33.57;;;17.13;;
30127;SDS011;16942;53.196;6.592;2023-02-13T15:54:48;33.63;;;17.83;;
30127;SDS011;16942;53.196;6.592;2023-02-13T15:57:15;32.93;;;17.63;;
30127;SDS011;16942;53.196;6.592;2023-02-13T15:59:42;36.70;;;18.27;;
30127;SDS011;16942;53.196;6.592;2023-02-13T16:02:12;37.23;;;19.37;;
30127;SDS011;16942;53.196;6.592;2023-02-13T16:04:39;32.23;;;17.33;;
30127;SDS011;16942;53.196;6.592;2023-02-13T16:07:08;37.03;;;17.50;;
30127;SDS011;16942;53.196;6.592;2023-02-13T16:09:35;33.77;;;17.57;;
30127;SDS011;16942;53.196;6.592;2023-02-13T16:12:21;35.17;;;17.47;;
30127;SDS011;16942;53.196;6.592;2023-02-13T16:14:54;35.30;;;17.93;;
30127;SDS011;16942;53.196;6.592;2023-02-13T16:17:28;36.47;;;18.77;;
30127;SDS011;16942;53.196;6.592;2023-02-13T16:19:56;35.97;;;17.57;;
30127;SDS011;16942;53.196;6.592;2023-02-13T16:22:31;34.63;;;17.77;;
30127;SDS011;16942;53.196;6.592;2023-02-13T16:25:08;33.80;;;17.50;;
30127;SDS011;16942;53.196;6.592;2023-02-13T16:27:45;40.90;;;20.10;;
30127;SDS011;16942;53.196;6.592;2023-02-13T16:30:31;37.53;;;19.77;;
30127;SDS011;16942;53.196;6.592;2023-02-13T16:33:09;42.47;;;22.67;;
30127;SDS011;16942;53.196;6.592;2023-02-13T16:35:36;46.13;;;20.90;;
30127;SDS011;16942;53.196;6.592;2023-02-13T16:38:03;44.00;;;20.87;;
30127;SDS011;16942;53.196;6.592;2023-02-13T16:45:42;34.40;;;17.43;;
30127;SDS011;16942;53.196;6.592;2023-02-13T16:48:11;38.67;;;18.10;;
30127;SDS011;16942;53.196;6.592;2023-02-13T16:50:38;34.97;;;17.83;;
30127;SDS011;16942;53.196;6.592;2023-02-13T16:53:04;32.93;;;16.70;;
30127;SDS011;16942;53.196;6.592;2023-02-13T16:55:30;35.60;;;18.67;;
30127;SDS011;16942;53.196;6.592;2023-02-13T16:58:03;39.83;;;19.47;;
30127;SDS011;16942;53.196;6.592;2023-02-13T17:00:29;43.00;;;19.17;;
30127;SDS011;16942;53.196;6.592;2023-02-13T17:02:56;38.80;;;18.47;;
30127;SDS011;16942;53.196;6.592;2023-02-13T17:05:23;35.97;;;17.43;;
30127;SDS011;16942;53.196;6.592;2023-02-13T17:07:50;33.17;;;17.40;;
30127;SDS011;16942;53.196;6.592;2023-02-13T17:12:44;33.93;;;16.63;;
30127;SDS011;16942;53.196;6.592;2023-02-13T17:15:12;33.50;;;16.97;;
30127;SDS011;16942;53.196;6.592;2023-02-13T17:17:38;35.90;;;17.20;;
30127;SDS011;16942;53.196;6.592;2023-02-13T17:20:05;36.90;;;17.50;;
30127;SDS011;16942;53.196;6.592;2023-02-13T17:22:35;38.47;;;18.20;;
30127;SDS011;16942;53.196;6.592;2023-02-13T17:25:06;39.57;;;18.23;;
30127;SDS011;16942;53.196;6.592;2023-02-13T17:27:33;39.27;;;19.63;;
30127;SDS011;16942;53.196;6.592;2023-02-13T17:29:59;47.27;;;22.10;;
30127;SDS011;16942;53.196;6.592;2023-02-13T17:32:25;49.27;;;22.90;;
30127;SDS011;16942;53.196;6.592;2023-02-13T17:34:52;55.27;;;27.00;;
30127;SDS011;16942;53.196;6.592;2023-02-13T17:37:19;57.43;;;26.20;;
30127;SDS011;16942;53.196;6.592;2023-02-13T17:39:46;63.63;;;32.63;;
30127;SDS011;16942;53.196;6.592;2023-02-13T17:42:16;56.60;;;26.47;;
30127;SDS011;16942;53.196;6.592;2023-02-13T17:44:43;58.70;;;26.33;;
30127;SDS011;16942;53.196;6.592;2023-02-13T17:47:09;56.40;;;24.83;;
30127;SDS011;16942;53.196;6.592;2023-02-13T17:49:35;50.83;;;23.70;;
30127;SDS011;16942;53.196;6.592;2023-02-13T17:52:01;54.07;;;24.00;;
30127;SDS011;16942;53.196;6.592;2023-02-13T17:54:27;47.87;;;22.60;;